Time;durP1;ratioP1;P1;durP2;ratioP2;P2;SDS_P1;SDS_P2;PMS_P1;PMS_P2;Temp;Humidity;BMP_temperature;BMP_pressure;BME280_temperature;BME280_humidity;BME280_pressure;Samples;Min_cycle;Max_cycle;Signal;HPM_P1;HPM_P2
2021/01/10 00:02:54;;;;;;;16.87;9.13;;;;;;;-0.17;100.00;98956.98;3693076;80;44037;-20
2021/01/10 00:08:01;;;;;;;18.63;10.40;;;;;;;-0.21;100.00;98956.74;3693405;80;43105;-20
2021/01/10 00:13:07;;;;;;;18.43;9.67;;;;;;;-0.21;100.00;98955.42;3693580;80;44045;-20
2021/01/10 00:18:13;;;;;;;17.63;9.73;;;;;;;-0.20;100.00;98957.13;3632419;81;44050;-20
2021/01/10 00:23:20;;;;;;;18.83;9.77;;;;;;;-0.18;100.00;98951.78;3693648;80;43779;-20
2021/01/10 00:28:25;;;;;;;18.70;9.87;;;;;;;-0.17;100.00;98956.98;3693349;80;43701;-20
2021/01/10 00:33:31;;;;;;;18.40;9.73;;;;;;;-0.19;100.00;98952.23;3693456;80;44124;-20
2021/01/10 00:38:37;;;;;;;18.57;10.03;;;;;;;-0.19;100.00;98959.33;3583370;83;43375;-20
2021/01/10 00:43:43;;;;;;;21.60;11.30;;;;;;;-0.20;100.00;98956.30;3693420;80;44406;-20
2021/01/10 00:48:49;;;;;;;19.60;10.17;;;;;;;-0.18;100.00;98959.24;3692397;79;43308;-20
2021/01/10 00:53:55;;;;;;;19.13;9.77;;;;;;;-0.16;100.00;98959.15;3693536;80;43322;-20
2021/01/10 00:59:01;;;;;;;19.07;10.60;;;;;;;-0.12;100.00;98962.03;3692788;80;43666;-20
2021/01/10 01:04:07;;;;;;;17.97;9.67;;;;;;;-0.23;100.00;98964.39;3693367;80;44412;-20
2021/01/10 01:09:14;;;;;;;19.43;10.17;;;;;;;-0.19;100.00;98964.63;3693334;80;43682;-20
2021/01/10 01:14:20;;;;;;;18.10;9.33;;;;;;;-0.20;100.00;98968.21;3693128;80;44401;-20
2021/01/10 01:19:26;;;;;;;17.03;9.13;;;;;;;-0.24;100.00;98970.62;3693215;79;43458;-20
2021/01/10 01:24:32;;;;;;;18.40;10.27;;;;;;;-0.27;100.00;98975.61;3692638;79;44034;-20
2021/01/10 01:29:38;;;;;;;15.93;8.63;;;;;;;-0.30;100.00;98978.89;3693256;79;43376;-20
2021/01/10 01:34:44;;;;;;;16.93;8.97;;;;;;;-0.30;100.00;98985.52;3692768;80;44049;-20
2021/01/10 01:39:49;;;;;;;21.47;10.10;;;;;;;-0.30;100.00;98978.89;3640632;81;44453;-20
2021/01/10 01:44:55;;;;;;;19.43;10.77;;;;;;;-0.27;100.00;98985.33;3692745;80;44132;-20
2021/01/10 01:50:04;;;;;;;18.70;9.80;;;;;;;-0.33;100.00;98991.34;3692948;80;43401;-20
2021/01/10 01:55:11;;;;;;;17.23;9.33;;;;;;;-0.31;100.00;98999.20;3692476;79;43380;-20
2021/01/10 02:00:19;;;;;;;18.73;9.93;;;;;;;-0.28;100.00;98991.56;3692920;80;44087;-20
2021/01/10 02:05:28;;;;;;;20.43;10.70;;;;;;;-0.37;100.00;98997.72;3692962;80;44086;-20
2021/01/10 02:10:37;;;;;;;16.63;9.57;;;;;;;-0.39;100.00;98996.09;3693206;80;43992;-20
2021/01/10 02:15:46;;;;;;;19.73;10.43;;;;;;;-0.45;100.00;98999.03;3692980;80;43718;-20
2021/01/10 02:20:54;;;;;;;17.80;9.50;;;;;;;-0.45;100.00;98994.62;3693738;80;44006;-20
2021/01/10 02:26:02;;;;;;;19.33;10.30;;;;;;;-0.36;100.00;98991.50;3692874;79;43475;-19
2021/01/10 02:31:10;;;;;;;18.13;9.57;;;;;;;-0.28;100.00;98991.56;3693340;79;43688;-20
2021/01/10 02:36:21;;;;;;;17.97;9.87;;;;;;;-0.30;100.00;98989.00;3693053;80;43458;-20
2021/01/10 02:41:32;;;;;;;16.93;9.10;;;;;;;-0.30;100.00;98994.30;3693634;80;44010;-20
2021/01/10 02:46:42;;;;;;;17.87;9.60;;;;;;;-0.28;100.00;98987.13;3693347;79;43185;-20
2021/01/10 02:51:48;;;;;;;17.70;9.87;;;;;;;-0.30;100.00;98988.16;3693498;80;44075;-20
2021/01/10 02:56:57;;;;;;;20.60;10.43;;;;;;;-0.30;100.00;98985.52;3693167;79;44062;-20
2021/01/10 03:02:06;;;;;;;17.73;9.17;;;;;;;-0.32;100.00;98985.12;3693523;80;43140;-20
2021/01/10 03:07:13;;;;;;;18.53;9.63;;;;;;;-0.39;100.00;98977.56;3692743;79;44199;-20
2021/01/10 03:12:24;;;;;;;20.00;10.33;;;;;;;-0.48;100.00;98974.46;3693350;80;43870;-19
2021/01/10 03:17:35;;;;;;;19.23;10.23;;;;;;;-0.53;100.00;98975.62;3693450;80;44589;-20
2021/01/10 03:22:44;;;;;;;16.77;9.33;;;;;;;-0.59;100.00;98978.12;3693456;80;44054;-20
2021/01/10 03:27:50;;;;;;;17.83;10.13;;;;;;;-0.67;100.00;98972.33;3693711;80;43340;-20
2021/01/10 03:32:56;;;;;;;17.27;9.50;;;;;;;-0.67;100.00;98971.87;3693050;79;43725;-20
2021/01/10 03:38:04;;;;;;;19.17;10.23;;;;;;;-0.69;100.00;98967.13;3693451;79;43447;-20
2021/01/10 03:43:09;;;;;;;18.10;9.93;;;;;;;-0.66;100.00;98963.45;3693866;80;43718;-20
2021/01/10 03:48:16;;;;;;;19.80;9.93;;;;;;;-0.64;100.00;98955.83;3692925;79;43681;-20
2021/01/10 03:53:22;;;;;;;19.27;9.60;;;;;;;-0.64;100.00;98958.47;3558968;83;43684;-20
2021/01/10 03:58:29;;;;;;;20.13;9.43;;;;;;;-0.68;100.00;98968.84;3685463;80;44025;-19
2021/01/10 04:03:35;;;;;;;21.87;11.10;;;;;;;-0.63;100.00;98965.96;3684825;79;43979;-19
2021/01/10 04:08:41;;;;;;;21.53;11.10;;;;;;;-0.87;100.00;98966.70;3684534;79;43759;-20
2021/01/10 04:13:47;;;;;;;23.50;11.07;;;;;;;-0.96;100.00;98962.26;3677608;80;43394;-20
2021/01/10 04:18:53;;;;;;;22.20;11.17;;;;;;;-0.88;100.00;98963.20;3685216;79;44030;-20
2021/01/10 04:23:59;;;;;;;24.00;11.57;;;;;;;-0.95;100.00;98970.59;3608200;82;43722;-20
2021/01/10 04:29:05;;;;;;;23.33;11.43;;;;;;;-0.92;100.00;98974.02;3681583;79;44006;-20
2021/01/10 04:34:10;;;;;;;21.63;11.00;;;;;;;-0.86;100.00;98980.31;3697057;79;43382;-20
2021/01/10 04:39:17;;;;;;;21.37;10.80;;;;;;;-0.85;100.00;98984.23;3681049;80;44458;-21
2021/01/10 04:44:24;;;;;;;22.43;10.10;;;;;;;-0.82;100.00;98987.19;3669341;81;43479;-20
2021/01/10 04:49:31;;;;;;;22.50;11.03;;;;;;;-0.74;100.00;98991.62;3669526;80;44052;-20
2021/01/10 04:54:41;;;;;;;22.73;11.37;;;;;;;-0.67;100.00;98993.50;3654783;80;43501;-20
2021/01/10 04:59:49;;;;;;;24.13;13.03;;;;;;;-0.63;100.00;98995.07;3653063;81;43754;-20
2021/01/10 05:04:55;;;;;;;22.47;11.27;;;;;;;-0.60;100.00;98992.28;3652643;81;44340;-20
2021/01/10 05:10:01;;;;;;;23.77;12.17;;;;;;;-0.56;100.00;98996.47;3600730;81;43430;-20
2021/01/10 05:15:09;;;;;;;23.70;11.63;;;;;;;-0.52;100.00;98979.95;3603963;82;44455;-20
2021/01/10 05:20:17;;;;;;;22.97;11.07;;;;;;;-0.51;100.00;98985.20;3641644;81;44774;-20
2021/01/10 05:25:24;;;;;;;21.20;10.63;;;;;;;-0.48;100.00;98990.80;3653255;81;43709;-20
2021/01/10 05:30:31;;;;;;;20.23;10.50;;;;;;;-0.49;100.00;98995.70;3618136;81;44021;-20
2021/01/10 05:35:50;;;;;;;22.33;10.80;;;;;;;-0.44;100.00;98992.81;3604616;82;43364;-20
2021/01/10 05:40:58;;;;;;;23.07;11.63;;;;;;;-0.42;100.00;99004.19;3603697;81;44015;-20
2021/01/10 05:46:16;;;;;;;19.70;10.77;;;;;;;-0.42;100.00;99007.70;3605382;82;44366;-20
2021/01/10 05:51:26;;;;;;;22.20;10.60;;;;;;;-0.38;100.00;99011.89;3609089;80;44052;-20
2021/01/10 05:56:33;;;;;;;22.47;10.77;;;;;;;-0.38;100.00;99008.41;3697796;80;44059;-20
2021/01/10 06:01:39;;;;;;;23.70;10.83;;;;;;;-0.37;100.00;99012.28;3670806;81;44073;-20
2021/01/10 06:06:47;;;;;;;19.77;10.43;;;;;;;-0.40;100.00;99011.59;3670779;80;43613;-20
2021/01/10 06:11:53;;;;;;;23.63;10.90;;;;;;;-0.38;100.00;99015.86;3608358;81;44046;-20
2021/01/10 06:16:59;;;;;;;21.33;10.70;;;;;;;-0.43;100.00;99011.28;3609695;82;44029;-20
2021/01/10 06:22:08;;;;;;;22.90;10.90;;;;;;;-0.41;100.00;99012.52;3671180;81;43685;-20
2021/01/10 06:27:23;;;;;;;21.17;10.20;;;;;;;-0.49;100.00;99016.87;3672178;80;43397;-20
2021/01/10 06:32:31;;;;;;;22.27;10.47;;;;;;;-0.55;100.00;99010.58;3698721;80;43476;-19
2021/01/10 06:37:39;;;;;;;20.17;10.40;;;;;;;-0.67;100.00;99010.25;3691995;79;43717;-19
2021/01/10 06:42:48;;;;;;;22.00;10.80;;;;;;;-0.79;100.00;99013.50;3677332;79;43672;-20
2021/01/10 06:47:57;;;;;;;23.73;11.37;;;;;;;-0.95;100.00;99014.71;3690640;79;43649;-20
2021/01/10 06:53:08;;;;;;;26.60;11.73;;;;;;;-1.03;100.00;99004.49;3609798;82;43596;-20
2021/01/10 06:58:14;;;;;;;25.20;11.60;;;;;;;-1.11;100.00;99014.11;3670685;79;43673;-20
2021/01/10 07:03:21;;;;;;;23.53;11.23;;;;;;;-1.16;100.00;99014.78;3670934;81;44481;-19
2021/01/10 07:08:33;;;;;;;27.57;12.50;;;;;;;-1.16;100.00;99018.75;3609338;81;44052;-17
2021/01/10 07:13:40;;;;;;;29.10;12.83;;;;;;;-1.10;100.00;99016.27;3637899;81;44022;-17
2021/01/10 07:18:53;;;;;;;24.33;11.10;;;;;;;-1.11;100.00;99014.56;3609029;81;43465;-18
2021/01/10 07:24:30;;;;;;;25.17;11.40;;;;;;;-1.15;100.00;99020.46;3671062;81;43975;-18
2021/01/10 07:29:38;;;;;;;23.17;10.97;;;;;;;-1.18;100.00;99014.47;3649404;81;44086;-17
2021/01/10 07:35:01;;;;;;;21.60;10.40;;;;;;;-1.32;100.00;99026.55;3618407;81;43465;-18
2021/01/10 07:40:10;;;;;;;23.57;11.53;;;;;;;-1.37;100.00;99020.63;3605026;81;43828;-18
2021/01/10 07:45:17;;;;;;;23.83;11.43;;;;;;;-1.40;100.00;99024.73;3671002;81;43404;-18
2021/01/10 07:50:25;;;;;;;21.83;9.83;;;;;;;-1.37;100.00;99021.08;3674406;79;43680;-18
2021/01/10 07:55:33;;;;;;;23.47;10.73;;;;;;;-1.37;100.00;99032.52;3609021;81;44074;-18
2021/01/10 08:01:02;;;;;;;25.70;11.87;;;;;;;-1.39;100.00;99033.05;3559145;82;44743;-19
2021/01/10 08:06:16;;;;;;;24.50;11.77;;;;;;;-1.40;100.00;99038.78;3622553;81;26613;-19
2021/01/10 08:11:31;;;;;;;26.60;12.20;;;;;;;-1.37;100.00;99049.70;3632060;81;44423;-18
2021/01/10 08:16:38;;;;;;;24.50;11.17;;;;;;;-1.37;100.00;99047.06;3701765;79;44039;-19
2021/01/10 08:21:44;;;;;;;26.07;11.83;;;;;;;-1.42;100.00;99055.66;3690245;79;43673;-19
2021/01/10 08:26:50;;;;;;;26.23;11.63;;;;;;;-1.38;100.00;99048.44;3695288;79;44092;-18
2021/01/10 08:31:56;;;;;;;28.27;12.53;;;;;;;-1.38;100.00;99050.63;3698490;80;44144;-18
2021/01/10 08:37:03;;;;;;;25.97;12.07;;;;;;;-1.28;100.00;99054.56;3695105;79;44028;-19
2021/01/10 08:42:09;;;;;;;25.07;11.57;;;;;;;-1.20;100.00;99058.63;3609273;82;44477;-17
2021/01/10 08:47:15;;;;;;;25.90;13.13;;;;;;;-1.18;100.00;99056.77;3670580;79;43344;-17
2021/01/10 08:52:21;;;;;;;26.87;12.67;;;;;;;-1.13;100.00;99049.50;3683161;79;43694;-17
2021/01/10 08:57:27;;;;;;;24.20;11.63;;;;;;;-1.09;100.00;99054.57;3693518;79;44830;-18
2021/01/10 09:02:33;;;;;;;26.70;12.10;;;;;;;-1.01;100.00;99057.30;3671392;81;44217;-18
2021/01/10 09:07:40;;;;;;;26.43;12.43;;;;;;;-0.95;100.00;99063.64;3670927;79;44050;-18
2021/01/10 09:12:48;;;;;;;24.80;11.87;;;;;;;-0.88;100.00;99062.89;3697780;80;43686;-18
2021/01/10 09:17:58;;;;;;;24.73;12.20;;;;;;;-0.82;100.00;99064.75;3692985;80;44016;-18
2021/01/10 09:23:10;;;;;;;27.47;13.13;;;;;;;-0.74;100.00;99069.67;3696668;79;43382;-18
2021/01/10 09:28:18;;;;;;;29.60;14.90;;;;;;;-0.65;100.00;99065.25;3696078;79;43438;-18
2021/01/10 09:33:25;;;;;;;26.90;14.37;;;;;;;-0.57;100.00;99066.20;3693687;80;44046;-17
2021/01/10 09:38:33;;;;;;;31.30;15.60;;;;;;;-0.46;100.00;99073.64;3695433;79;44142;-18
2021/01/10 09:43:40;;;;;;;30.13;15.60;;;;;;;-0.34;100.00;99073.03;3697205;80;43690;-18
2021/01/10 09:48:51;;;;;;;27.43;13.27;;;;;;;-0.25;100.00;99076.14;3696600;79;43400;-19
2021/01/10 09:54:10;;;;;;;30.37;13.37;;;;;;;-0.22;100.00;99071.55;3692243;80;43391;-19
2021/01/10 09:59:42;;;;;;;25.50;13.00;;;;;;;-0.10;100.00;99067.44;3680439;79;44473;-18
2021/01/10 10:04:50;;;;;;;23.50;12.10;;;;;;;-0.01;100.00;99070.94;3698185;80;43672;-18
2021/01/10 10:09:56;;;;;;;25.73;12.30;;;;;;;0.06;100.00;99062.20;3743830;79;43684;-18
2021/01/10 10:15:04;;;;;;;25.53;12.43;;;;;;;0.26;100.00;99061.18;3759677;79;44071;-18
2021/01/10 10:20:11;;;;;;;22.57;12.37;;;;;;;0.26;100.00;99058.53;3624507;80;44073;-18
2021/01/10 10:25:17;;;;;;;21.37;11.47;;;;;;;0.37;100.00;99058.43;3608214;81;43697;-18
2021/01/10 10:30:25;;;;;;;22.17;11.20;;;;;;;0.40;100.00;99052.98;3697242;79;44776;-18
2021/01/10 10:35:32;;;;;;;21.37;10.80;;;;;;;0.43;100.00;99053.66;3696069;80;44047;-18
2021/01/10 10:40:38;;;;;;;18.73;9.33;;;;;;;0.58;100.00;99048.00;3693250;79;44056;-18
2021/01/10 10:45:44;;;;;;;18.70;10.13;;;;;;;0.41;100.00;99046.26;3698777;80;43273;-19
2021/01/10 10:50:52;;;;;;;18.67;10.03;;;;;;;0.37;100.00;99039.88;3696736;80;43366;-19
2021/01/10 10:55:57;;;;;;;20.00;10.43;;;;;;;0.55;100.00;99034.91;3697530;80;44491;-18
2021/01/10 11:01:03;;;;;;;18.57;10.07;;;;;;;0.59;100.00;99036.46;3695392;79;43508;-19
2021/01/10 11:06:09;;;;;;;18.33;10.60;;;;;;;0.53;100.00;99034.13;3689864;80;43681;-18
2021/01/10 11:11:16;;;;;;;16.43;9.33;;;;;;;0.57;100.00;99030.86;3693674;80;44069;-19
2021/01/10 11:16:29;;;;;;;19.10;10.17;;;;;;;0.57;100.00;99027.73;3694492;79;44110;-19
2021/01/10 11:21:38;;;;;;;16.63;9.57;;;;;;;0.69;100.00;99020.05;3693829;80;44411;-19
2021/01/10 11:26:45;;;;;;;15.07;8.63;;;;;;;0.58;100.00;99021.48;3693246;80;43666;-20
2021/01/10 11:31:51;;;;;;;14.20;8.30;;;;;;;0.77;100.00;99013.84;3590243;81;44517;-20
2021/01/10 11:36:57;;;;;;;11.50;7.23;;;;;;;0.86;100.00;99005.39;3693602;79;44500;-19
2021/01/10 11:42:04;;;;;;;15.00;8.17;;;;;;;0.86;100.00;99004.06;3693993;80;44776;-19
2021/01/10 11:47:09;;;;;;;14.47;7.80;;;;;;;0.88;100.00;98997.34;3692727;79;44110;-19
2021/01/10 11:52:16;;;;;;;13.83;7.50;;;;;;;0.89;100.00;98995.91;3693540;80;43705;-19
2021/01/10 11:57:24;;;;;;;12.77;7.57;;;;;;;0.98;100.00;98988.41;3693220;79;43310;-19
2021/01/10 12:02:30;;;;;;;12.93;7.70;;;;;;;0.83;100.00;98980.81;3573525;79;9999794;-19
2021/01/10 12:07:36;;;;;;;13.27;8.00;;;;;;;0.83;100.00;98979.48;3690648;79;43512;-19
2021/01/10 12:12:42;;;;;;;14.83;8.00;;;;;;;0.88;100.00;98974.30;3671520;81;43990;-18
2021/01/10 12:17:48;;;;;;;15.70;8.73;;;;;;;0.91;100.00;98969.32;3676797;80;44124;-19
2021/01/10 12:22:54;;;;;;;15.83;8.80;;;;;;;0.98;100.00;98972.00;3699209;80;44031;-19
2021/01/10 12:28:00;;;;;;;14.17;8.43;;;;;;;1.02;100.00;98964.71;3690487;79;44200;-18
2021/01/10 12:33:06;;;;;;;13.47;8.10;;;;;;;1.07;100.00;98948.08;3671665;81;44030;-19
2021/01/10 12:38:13;;;;;;;15.53;8.63;;;;;;;1.14;100.00;98942.78;3607136;81;44461;-19
2021/01/10 12:43:22;;;;;;;15.43;8.70;;;;;;;1.18;100.00;98940.80;3604870;80;43680;-19
2021/01/10 12:48:31;;;;;;;14.90;8.50;;;;;;;1.22;100.00;98932.59;3534574;82;44471;-20
2021/01/10 12:53:38;;;;;;;13.93;8.40;;;;;;;1.30;100.00;98933.45;3694687;80;43706;-19
2021/01/10 12:58:43;;;;;;;14.50;8.33;;;;;;;1.48;100.00;98928.86;3698970;80;43708;-18
2021/01/10 13:03:50;;;;;;;13.67;7.73;;;;;;;1.48;100.00;98924.88;3721583;79;43429;-19
2021/01/10 13:08:56;;;;;;;14.47;8.60;;;;;;;1.43;100.00;98933.60;3720594;78;44051;-19
2021/01/10 13:14:02;;;;;;;14.90;8.57;;;;;;;1.64;100.00;98929.28;3721202;79;43484;-19
2021/01/10 13:19:08;;;;;;;14.17;8.17;;;;;;;1.75;100.00;98930.81;3721203;79;43495;-19
2021/01/10 13:24:14;;;;;;;14.10;8.67;;;;;;;2.03;100.00;98937.11;3721950;79;43649;-19
2021/01/10 13:29:21;;;;;;;14.17;8.33;;;;;;;2.38;100.00;98931.86;3721891;79;43300;-19
2021/01/10 13:34:28;;;;;;;14.87;8.77;;;;;;;2.55;100.00;98940.09;3721679;79;43235;-19
2021/01/10 13:39:36;;;;;;;11.93;7.70;;;;;;;2.73;100.00;98940.27;3721243;78;44068;-19
2021/01/10 13:44:43;;;;;;;14.60;8.33;;;;;;;2.65;100.00;98941.70;3661680;81;43680;-19
2021/01/10 13:49:51;;;;;;;12.40;7.57;;;;;;;2.85;100.00;98941.77;3702796;78;43297;-19
2021/01/10 13:54:57;;;;;;;11.30;7.37;;;;;;;2.92;100.00;98951.04;3722026;79;44180;-19
2021/01/10 14:00:11;;;;;;;11.57;7.77;;;;;;;2.73;100.00;98954.03;3714777;78;42648;-20
2021/01/10 14:05:18;;;;;;;14.30;8.60;;;;;;;2.75;100.00;98954.80;3708393;79;43499;-19
2021/01/10 14:10:24;;;;;;;14.43;8.63;;;;;;;2.78;100.00;98956.77;3720219;78;44434;-18
2021/01/10 14:15:30;;;;;;;11.73;7.20;;;;;;;3.08;100.00;98953.55;3713421;78;44008;-19
2021/01/10 14:20:37;;;;;;;11.43;7.37;;;;;;;2.82;100.00;98958.78;3714130;78;44107;-19
2021/01/10 14:25:47;;;;;;;13.20;7.83;;;;;;;2.79;100.00;98958.97;3714116;80;43690;-19
2021/01/10 14:30:54;;;;;;;13.10;7.73;;;;;;;2.85;100.00;98958.56;3714063;78;43685;-18
2021/01/10 14:35:59;;;;;;;13.47;7.77;;;;;;;2.87;100.00;98957.16;3714026;80;43374;-18
2021/01/10 14:41:06;;;;;;;14.17;8.30;;;;;;;2.86;100.00;98955.45;3713712;80;44529;-18
2021/01/10 14:46:12;;;;;;;12.87;7.47;;;;;;;2.82;100.00;98961.45;3713634;78;43035;-19
2021/01/10 14:51:20;;;;;;;11.77;7.50;;;;;;;2.80;100.00;98967.80;3713976;78;43717;-19
2021/01/10 14:56:27;;;;;;;11.03;7.43;;;;;;;2.53;100.00;98957.98;3709353;80;43401;-19
2021/01/10 15:01:34;;;;;;;11.63;7.80;;;;;;;2.15;100.00;98958.08;3673523;81;44096;-19
2021/01/10 15:06:41;;;;;;;11.67;7.20;;;;;;;2.27;100.00;98957.31;3686639;80;43720;-18
2021/01/10 15:11:48;;;;;;;12.00;7.13;;;;;;;2.04;100.00;98957.42;3694133;80;43679;-18
2021/01/10 15:16:54;;;;;;;13.23;7.87;;;;;;;1.83;100.00;98956.92;3697975;79;43112;-18
2021/01/10 15:22:01;;;;;;;14.47;8.13;;;;;;;1.64;100.00;98954.51;3673759;81;43321;-18
2021/01/10 15:27:07;;;;;;;14.83;8.77;;;;;;;1.34;100.00;98951.41;3673953;80;44043;-18
2021/01/10 15:32:13;;;;;;;14.63;8.27;;;;;;;1.13;100.00;98953.02;3673992;81;44013;-18
2021/01/10 15:37:20;;;;;;;13.83;8.57;;;;;;;0.86;100.00;98961.62;3673547;80;43499;-18
2021/01/10 15:42:26;;;;;;;14.67;7.83;;;;;;;0.56;100.00;98959.72;3673598;81;43487;-18
2021/01/10 15:47:33;;;;;;;18.07;9.53;;;;;;;0.38;100.00;98964.72;3671362;80;42872;-18
2021/01/10 15:52:39;;;;;;;13.70;8.30;;;;;;;0.21;100.00;98962.98;3699077;79;42707;-18
2021/01/10 15:57:45;;;;;;;16.93;9.43;;;;;;;-0.01;100.00;98968.11;3706263;79;42881;-18
2021/01/10 16:02:51;;;;;;;18.73;10.40;;;;;;;-0.16;100.00;98963.12;3721704;79;43341;-18
2021/01/10 16:07:57;;;;;;;21.50;11.50;;;;;;;-0.26;100.00;98972.48;3721710;78;44874;-19
2021/01/10 16:13:07;;;;;;;23.00;12.30;;;;;;;-0.38;100.00;98970.86;3721487;79;43223;-19
2021/01/10 16:18:13;;;;;;;20.80;12.50;;;;;;;-0.49;100.00;98970.55;3721608;78;44005;-19
2021/01/10 16:23:19;;;;;;;25.53;14.23;;;;;;;-0.57;100.00;98974.05;3721240;78;43681;-19
2021/01/10 16:28:26;;;;;;;25.63;13.13;;;;;;;-0.64;100.00;98961.12;3722208;78;44095;-19
2021/01/10 16:33:32;;;;;;;19.80;11.73;;;;;;;-0.72;100.00;98961.14;3721822;79;43232;-19
2021/01/10 16:38:39;;;;;;;18.80;10.97;;;;;;;-0.82;100.00;98966.86;3721211;79;43442;-19
2021/01/10 16:43:47;;;;;;;18.93;10.23;;;;;;;-0.90;100.00;98959.78;3721649;79;44387;-19
2021/01/10 16:48:53;;;;;;;20.80;10.53;;;;;;;-1.05;100.00;98960.52;3720838;79;42947;-19
2021/01/10 16:53:59;;;;;;;20.80;11.23;;;;;;;-1.15;100.00;98959.65;3719689;78;43267;-19
2021/01/10 16:59:05;;;;;;;18.77;10.30;;;;;;;-1.20;100.00;98964.77;3701410;78;44164;-19
2021/01/10 17:04:12;;;;;;;20.63;10.13;;;;;;;-1.31;100.00;98962.66;3672968;81;44597;-19
2021/01/10 17:09:19;;;;;;;18.90;9.87;;;;;;;-1.39;100.00;98960.38;3683299;79;43725;-19
2021/01/10 17:14:26;;;;;;;20.80;10.67;;;;;;;-1.45;100.00;98951.39;3718348;80;44456;-19
2021/01/10 17:19:31;;;;;;;16.40;9.23;;;;;;;-1.49;100.00;98955.97;3702961;79;43745;-19
2021/01/10 17:24:37;;;;;;;16.63;9.17;;;;;;;-1.56;100.00;98953.23;3700509;79;44038;-18
2021/01/10 17:29:43;;;;;;;18.73;9.47;;;;;;;-1.63;100.00;98964.55;3652121;79;43420;-17
2021/01/10 17:34:49;;;;;;;17.47;10.00;;;;;;;-1.66;100.00;98958.08;3680280;80;44177;-17
2021/01/10 17:39:55;;;;;;;19.20;9.63;;;;;;;-1.74;100.00;98967.67;3667071;79;44237;-17
2021/01/10 17:45:01;;;;;;;17.47;9.93;;;;;;;-1.80;100.00;98959.17;3669848;81;43293;-18
2021/01/10 17:50:09;;;;;;;19.67;10.73;;;;;;;-1.87;100.00;98963.42;3608133;81;44379;-18
2021/01/10 17:55:15;;;;;;;17.23;9.63;;;;;;;-1.91;100.00;98972.40;3694943;80;43688;-18
2021/01/10 18:00:22;;;;;;;20.60;11.43;;;;;;;-1.99;100.00;98968.38;3694741;79;43296;-18
2021/01/10 18:05:28;;;;;;;20.47;10.73;;;;;;;-2.02;100.00;98972.90;3693265;80;43337;-18
2021/01/10 18:10:34;;;;;;;24.43;13.60;;;;;;;-2.08;100.00;98976.27;3693242;79;43431;-17
2021/01/10 18:15:42;;;;;;;22.63;12.20;;;;;;;-2.13;100.00;98972.97;3693380;80;44046;-18
2021/01/10 18:20:47;;;;;;;22.93;11.43;;;;;;;-2.22;100.00;98972.45;3693593;79;43424;-17
2021/01/10 18:25:53;;;;;;;22.23;11.73;;;;;;;-2.22;100.00;98982.14;3583617;83;44046;-17
2021/01/10 18:30:59;;;;;;;20.90;10.77;;;;;;;-2.28;100.00;98979.78;3670018;80;43709;-17
2021/01/10 18:36:07;;;;;;;17.10;9.33;;;;;;;-2.37;100.00;98973.98;3693713;80;43407;-17
2021/01/10 18:41:13;;;;;;;19.17;10.07;;;;;;;-2.46;100.00;98976.15;3693210;79;44468;-17
2021/01/10 18:46:25;;;;;;;21.13;10.03;;;;;;;-2.53;100.00;98975.08;3693016;80;43719;-17
2021/01/10 18:51:34;;;;;;;22.60;9.97;;;;;;;-2.58;100.00;98975.75;3582530;82;44017;-17
2021/01/10 18:56:42;;;;;;;21.77;10.43;;;;;;;-2.60;100.00;98982.02;3693702;80;42144;-18
2021/01/10 19:01:48;;;;;;;19.67;10.17;;;;;;;-2.63;100.00;98980.34;3693405;79;44010;-18
2021/01/10 19:06:55;;;;;;;20.13;10.17;;;;;;;-2.68;100.00;98973.10;3693732;79;43472;-18
2021/01/10 19:12:03;;;;;;;21.97;10.10;;;;;;;-2.72;100.00;98971.50;3646216;80;44492;-18
2021/01/10 19:17:10;;;;;;;21.03;10.70;;;;;;;-2.75;100.00;98967.22;3693418;80;43084;-18
2021/01/10 19:22:17;;;;;;;18.13;9.87;;;;;;;-2.88;100.00;98973.92;3693862;80;43713;-18
2021/01/10 19:27:23;;;;;;;19.53;10.57;;;;;;;-2.92;100.00;98973.64;3693304;80;43477;-18
2021/01/10 19:32:29;;;;;;;17.53;9.53;;;;;;;-3.00;100.00;98979.25;3614495;81;43418;-18
2021/01/10 19:37:35;;;;;;;19.83;9.57;;;;;;;-3.09;100.00;98973.88;3671004;79;42857;-18
2021/01/10 19:42:42;;;;;;;20.27;10.00;;;;;;;-3.16;100.00;98976.34;3595103;81;43470;-18
2021/01/10 19:47:48;;;;;;;23.03;11.57;;;;;;;-3.19;100.00;98976.02;3631525;80;44078;-18
2021/01/10 19:52:56;;;;;;;21.30;11.37;;;;;;;-3.26;100.00;98979.83;3652339;80;42953;-18
2021/01/10 19:58:05;;;;;;;23.53;11.50;;;;;;;-3.31;100.00;98983.09;3627406;81;43997;-18
2021/01/10 20:03:15;;;;;;;22.67;11.77;;;;;;;-3.35;100.00;98978.88;3579414;81;43677;-16
2021/01/10 20:08:21;;;;;;;23.67;12.03;;;;;;;-3.41;100.00;98976.87;3702076;80;43501;-16
2021/01/10 20:13:28;;;;;;;24.03;12.27;;;;;;;-3.42;100.00;98965.92;3656479;81;43202;-16
2021/01/10 20:18:34;;;;;;;23.47;11.67;;;;;;;-3.42;100.00;98965.92;3655984;81;43340;-16
2021/01/10 20:23:42;;;;;;;23.70;12.17;;;;;;;-3.45;100.00;98971.78;3656498;81;42912;-15
2021/01/10 20:28:48;;;;;;;23.33;12.17;;;;;;;-3.52;100.00;98964.57;3704703;80;43510;-25
2021/01/10 20:33:57;;;;;;;22.77;11.43;;;;;;;-3.51;100.00;98973.31;3655913;81;43720;-16
2021/01/10 20:39:03;;;;;;;26.90;12.30;;;;;;;-3.55;100.00;98966.00;3703380;80;43426;-17
2021/01/10 20:44:12;;;;;;;21.33;11.13;;;;;;;-3.59;100.00;98967.89;3655969;81;43724;-17
2021/01/10 20:49:18;;;;;;;30.27;11.63;;;;;;;-3.58;100.00;98972.69;3703474;80;43782;-17
2021/01/10 20:54:24;;;;;;;33.80;12.47;;;;;;;-3.58;100.00;98972.69;3654979;81;44610;-17
2021/01/10 20:59:30;;;;;;;38.47;11.70;;;;;;;-3.52;100.00;98977.74;3695445;80;43361;-17
2021/01/10 21:04:36;;;;;;;35.87;11.50;;;;;;;-3.56;100.00;98973.50;3662959;81;43682;-17
2021/01/10 21:09:48;;;;;;;59.40;12.47;;;;;;;-3.58;100.00;98972.69;3673632;80;43710;-17
2021/01/10 21:14:50;;;;;;;30.60;10.47;;;;;;;-3.54;100.00;98970.83;3681534;80;43022;-20
2021/01/10 21:19:58;;;;;;;34.90;10.13;;;;;;;-3.56;100.00;98965.59;3622185;81;44008;-20
2021/01/10 21:25:04;;;;;;;28.23;10.30;;;;;;;-3.57;100.00;98957.29;3695520;80;43752;-20
2021/01/10 21:30:12;;;;;;;25.43;10.53;;;;;;;-3.59;100.00;98956.05;3661920;81;44731;-20
2021/01/10 21:35:19;;;;;;;28.13;10.63;;;;;;;-3.59;100.00;98957.36;3678967;80;44564;-21
2021/01/10 21:40:26;;;;;;;19.50;9.63;;;;;;;-3.61;100.00;98957.87;3668200;80;43068;-20
2021/01/10 21:45:32;;;;;;;21.47;9.93;;;;;;;-3.64;100.00;98961.09;3660134;80;43454;-20
2021/01/10 21:50:39;;;;;;;20.17;9.73;;;;;;;-3.69;100.00;98952.49;3668948;80;44188;-20
2021/01/10 21:55:45;;;;;;;18.40;9.13;;;;;;;-3.76;100.00;98952.73;3657170;81;43363;-20
2021/01/10 22:00:51;;;;;;;23.47;10.20;;;;;;;-3.77;100.00;98944.44;3661591;80;44094;-20
2021/01/10 22:05:58;;;;;;;20.50;9.73;;;;;;;-3.81;100.00;98953.36;3719596;79;43407;-20
2021/01/10 22:11:04;;;;;;;20.10;9.73;;;;;;;-3.90;100.00;98948.00;3707486;79;44060;-20
2021/01/10 22:16:12;;;;;;;22.17;10.70;;;;;;;-3.95;100.00;98941.20;3667080;80;44008;-20
2021/01/10 22:21:18;;;;;;;21.73;10.53;;;;;;;-3.95;100.00;98936.77;3700487;79;44070;-20
2021/01/10 22:26:29;;;;;;;21.60;10.23;;;;;;;-3.96;100.00;98934.21;3655850;80;43363;-20
2021/01/10 22:31:36;;;;;;;19.00;8.87;;;;;;;-3.95;100.00;98938.09;3713732;79;43677;-20
2021/01/10 22:36:42;;;;;;;22.40;10.33;;;;;;;-3.93;100.00;98934.95;3738661;79;44007;-20
2021/01/10 22:41:48;;;;;;;19.23;9.47;;;;;;;-3.95;100.00;98931.51;3671445;80;43855;-20
2021/01/10 22:46:55;;;;;;;20.70;9.87;;;;;;;-3.98;100.00;98936.03;3685623;80;43640;-20
2021/01/10 22:52:01;;;;;;;19.17;9.57;;;;;;;-4.08;100.00;98929.80;3709005;79;44404;-20
2021/01/10 22:57:07;;;;;;;20.37;10.30;;;;;;;-4.13;100.00;98915.94;3656558;81;43682;-20
2021/01/10 23:02:13;;;;;;;18.50;9.43;;;;;;;-4.16;100.00;98921.31;3708140;79;43511;-20
2021/01/10 23:07:19;;;;;;;17.77;9.57;;;;;;;-4.18;100.00;98921.85;3644314;80;44033;-20
2021/01/10 23:12:26;;;;;;;18.27;9.13;;;;;;;-4.25;100.00;98912.45;3645445;81;43950;-20
2021/01/10 23:17:32;;;;;;;19.93;9.00;;;;;;;-4.26;100.00;98910.73;3614135;81;44077;-20
2021/01/10 23:22:41;;;;;;;19.10;9.50;;;;;;;-4.28;100.00;98905.53;3700815;80;43473;-20
2021/01/10 23:27:48;;;;;;;18.73;8.90;;;;;;;-4.30;100.00;98899.94;3699912;80;43714;-20